Saturday, December 16, 2017, 5:53 AM EST
Back to Local

KMVY, Vineyard Haven Marthas Vin

Location: Vineyard Haven, MA, United States Lat: 41.4
Local Time: 5:53 AM EST (10:53 GMT) Lon: -70.617
Time Zone: US/Eastern Elev: 68 ft

Show me the last for .
Show Coded

Time T Td Feel RH Dir Speed Gust Alt SLP Vis Weather Sky Remarks
2017-12-16 04:53 2 - -15 0 290° 13 - 29.86 29.86 10 CLR None
2017-12-16 03:53 - - - 0 290° 12 - 29.84 - 10 CLR 6-hr Precip Total (4am): 0.00"
2017-12-16 03:16 - - - 0 290° 9 18 29.83 - 10 SCT020 OVC085 None
2017-12-16 03:05 - - - 0 290° 9 21 29.83 - 10 BKN021 OVC085 None
2017-12-16 02:53 - - - 0 290° 12 20 29.83 - 10 SCT021 OVC085 None
2017-12-16 02:38 - - - 0 300° 12 20 29.82 - 10 FEW019 SCT042 OVC085 None
2017-12-16 01:53 - - - 0 290° 9 - 29.81 - 10 BKN018 BKN026 OVC037 1-hr Precip Total: Trace
2017-12-16 01:22 - - - 0 290° 13 - 29.79 - 10 SCT009 BKN015 OVC037 1-hr Precip Total: Trace
2017-12-16 01:00 - - - 0 300° 9 - 29.79 - 5 -SN BKN007 OVC012 1-hr Precip Total: Trace
2017-12-16 00:53 2 - -14 0 300° 10 - 29.78 29.79 2 -SN BKN007 OVC014 1-hr Precip Total: 0.01"
6-hr Precip Total (1am): 0.06"
2017-12-16 00:46 2 - -12 0 310° 8 - 29.78 - 1 -SN BKN007 OVC014 1-hr Precip Total: 0.01"
2017-12-15 23:53 - - - 0 330° 12 - 29.79 - 1 -SN FEW006 OVC014 1-hr Precip Total: Trace
2017-12-15 23:37 - - - 0 340° 10 - 29.79 - 1 -SN FEW006 OVC014 1-hr Precip Total: Trace
2017-12-15 23:22 - - - 0 340° 9 - 29.79 - 1 -SN BKN006 OVC014 1-hr Precip Total: Trace
2017-12-15 23:14 - - - 0 330° 13 - 29.79 - 1 -SN SCT007 OVC014 1-hr Precip Total: Trace
2017-12-15 23:06 - - - 0 340° 13 - 29.80 - 2 -SN BKN007 OVC014 1-hr Precip Total: Trace
2017-12-15 22:53 - - - 0 350° 8 - 29.80 - 2 -SN SCT007 OVC014 1-hr Precip Total: 0.01"
2017-12-15 22:35 - - - 0 340° 8 - 29.80 - 1 -SN OVC007 1-hr Precip Total: Trace
2017-12-15 22:00 2 - -9 0 350° 6 - 29.81 - 2 -SN BKN008 OVC025 1-hr Precip Total: Trace
2017-12-15 21:53 2 - -9 0 350° 6 - 29.81 29.81 3 -SN BKN008 OVC022 1-hr Precip Total: 0.01"
6-hr Precip Total (10pm): 0.04"
2017-12-15 21:43 - - - 0 350° 6 - 29.81 - 3 -SN SCT007 OVC023 1-hr Precip Total: Trace
2017-12-15 21:40 - - - 0 360° 5 - 29.81 - 2 -SN BKN007 BKN023 OVC028 1-hr Precip Total: Trace
2017-12-15 21:05 - - - 0 20° 5 - 29.82 - 4 -SN BKN007 OVC060 1-hr Precip Total: Trace
2017-12-15 20:53 - - - 0 360° 5 - 29.82 - 4 -SN FEW007 OVC049 1-hr Precip Total: 0.01"
2017-12-15 20:43 - - - 0 40° 5 - 29.83 - 3 -SN OVC045 1-hr Precip Total: 0.01"
2017-12-15 20:36 - - - 0 30° 5 - 29.83 - 2 -SN FEW027 OVC033 1-hr Precip Total: 0.01"
2017-12-15 20:25 - - - 0 20° 3 - 29.83 - 2 -SN OVC027 1-hr Precip Total: 0.01"
2017-12-15 19:53 - - - 0 - Calm - 29.85 - 1 -SN OVC021 1-hr Precip Total: 0.02"
2017-12-15 18:53 - - - 0 320° 3 - 29.88 - 1 -SN BKN018 OVC030 1-hr Precip Total: 0.02"
6-hr Precip Total (7pm): 0.02"
2017-12-15 17:59 - - - 0 - Calm - 29.90 - 1 -SN OVC025 1-hr Precip Total: Trace
2017-12-15 17:53 - - - 0 - Calm - 29.90 - 3 -SN OVC031 1-hr Precip Total: Trace
2017-12-15 16:53 27 21 20 77 50° 6 - 29.89 - 10 FEW022 OVC075 None
2017-12-15 15:53 - - - 0 10° 6 - 29.93 - 10 OVC080 None
2017-12-15 14:53 28 21 - 74 - Calm - 29.98 - 10 FEW090 None
2017-12-15 13:53 28 19 - 68 - Calm - 29.99 - 10 CLR None
2017-12-15 12:53 28 18 23 65 250° 5 - 30.02 - 10 CLR 6-hr Min Temp (1pm): 1.9°F
6-hr Max Temp (1pm): 28.0°F
2017-12-15 11:53 27 14 20 57 250° 6 - 30.06 - 10 CLR None
2017-12-15 10:53 25 16 - 68 - Calm - 30.10 - 10 CLR None
2017-12-15 09:53 25 16 19 68 200° 5 - 30.14 - 10 CLR None
2017-12-15 08:53 10 7 4 87 220° 3 - 30.12 - 10 CLR None
2017-12-15 07:53 7 5 - 91 - Calm - 30.10 - 10 CLR None
2017-12-15 06:53 9 7 2 91 320° 3 - 30.09 - 10 CLR 24-hr Precip Total (7am): 0.03"

Support USWX by starting your Amazon purchase here.